createdAt,value
2018-08-11T00:00:34.453Z,20.6
2018-08-11T00:01:44.568Z,20.61
2018-08-11T00:02:54.660Z,20.63
2018-08-11T00:04:04.734Z,20.66
2018-08-11T00:05:14.819Z,20.63
2018-08-11T00:06:24.630Z,20.58
2018-08-11T00:07:34.687Z,20.64
2018-08-11T00:08:44.503Z,20.56
2018-08-11T00:09:54.596Z,20.61
2018-08-11T00:11:04.412Z,20.51
2018-08-11T00:12:14.501Z,20.54
2018-08-11T00:13:24.561Z,20.58
2018-08-11T00:14:34.684Z,20.66
2018-08-11T00:15:44.773Z,20.53
2018-08-11T00:16:54.839Z,20.48
2018-08-11T00:18:04.942Z,20.58
2018-08-11T00:19:15.016Z,20.54
2018-08-11T00:20:25.080Z,20.48
2018-08-11T00:21:34.888Z,20.53
2018-08-11T00:22:44.984Z,20.53
2018-08-11T00:23:55.069Z,20.64
2018-08-11T00:25:04.932Z,20.53
2018-08-11T00:26:15.000Z,20.64
2018-08-11T00:27:25.058Z,20.57
2018-08-11T00:28:34.867Z,20.58
2018-08-11T00:29:44.932Z,20.61
2018-08-11T00:30:54.745Z,20.49
2018-08-11T00:32:04.820Z,20.51
2018-08-11T00:33:14.627Z,20.48
2018-08-11T00:34:24.697Z,20.53
2018-08-11T00:35:34.774Z,20.51
2018-08-11T00:36:44.855Z,20.68
2018-08-11T00:37:54.667Z,20.6
2018-08-11T00:39:04.500Z,20.63
2018-08-11T00:40:14.587Z,20.71
2018-08-11T00:41:24.647Z,20.71
2018-08-11T00:42:34.704Z,20.75
2018-08-11T00:43:44.793Z,20.83
2018-08-11T00:44:54.869Z,20.81
2018-08-11T00:46:04.957Z,20.82
2018-08-11T00:47:15.030Z,20.81
2018-08-11T00:48:25.103Z,20.79
2018-08-11T00:49:35.595Z,20.75
2018-08-11T00:50:45.697Z,20.6
2018-08-11T00:51:55.509Z,20.66
2018-08-11T00:53:05.583Z,20.61
2018-08-11T00:54:15.659Z,20.48
2018-08-11T00:55:25.792Z,20.44
2018-08-11T00:56:35.868Z,20.53
2018-08-11T00:57:45.933Z,20.54
2018-08-11T00:58:56.024Z,20.57
2018-08-11T01:00:06.085Z,20.57
2018-08-11T01:01:16.165Z,20.53
2018-08-11T01:02:26.402Z,20.49
2018-08-11T01:03:36.694Z,20.49
2018-08-11T01:04:46.502Z,20.41
2018-08-11T01:05:56.558Z,20.46
2018-08-11T01:07:06.379Z,20.51
2018-08-11T01:08:16.176Z,20.49
2018-08-11T01:09:26.257Z,20.53
2018-08-11T01:10:36.381Z,20.53
2018-08-11T01:11:46.481Z,20.48
2018-08-11T01:12:56.611Z,20.51
2018-08-11T01:14:06.680Z,20.51
2018-08-11T01:15:16.546Z,20.64
2018-08-11T01:16:26.306Z,20.58
2018-08-11T01:17:36.381Z,20.54
2018-08-11T01:18:46.459Z,20.48
2018-08-11T01:19:56.548Z,20.48
2018-08-11T01:21:06.363Z,20.63
2018-08-11T01:22:16.173Z,20.61
2018-08-11T01:23:26.241Z,20.56
2018-08-11T01:24:36.066Z,20.61
2018-08-11T01:25:45.869Z,20.66
2018-08-11T01:26:55.955Z,20.66
2018-08-11T01:28:06.012Z,20.61
2018-08-11T01:29:16.073Z,20.61
2018-08-11T01:30:26.144Z,20.58
2018-08-11T01:31:36.217Z,20.64
2018-08-11T01:32:46.334Z,20.56
2018-08-11T01:33:56.645Z,20.63
2018-08-11T01:35:06.765Z,20.57
2018-08-11T01:36:16.314Z,20.63
2018-08-11T01:37:26.405Z,20.61
2018-08-11T01:38:36.495Z,20.56
2018-08-11T01:39:46.584Z,20.58
2018-08-11T01:40:56.654Z,20.58
2018-08-11T01:42:06.724Z,20.53
2018-08-11T01:43:16.795Z,20.6
2018-08-11T01:44:27.276Z,20.6
2018-08-11T01:45:37.349Z,20.63
2018-08-11T01:46:47.172Z,20.66
2018-08-11T01:47:57.242Z,20.66
2018-08-11T01:49:07.334Z,20.58
2018-08-11T01:50:17.393Z,20.67
2018-08-11T01:51:27.461Z,20.48
2018-08-11T01:52:37.044Z,20.56
2018-08-11T01:53:47.107Z,20.54
2018-08-11T01:54:56.910Z,20.46
2018-08-11T01:56:06.731Z,20.46
2018-08-11T01:57:16.809Z,20.6
2018-08-11T01:58:26.887Z,20.64
2018-08-11T01:59:36.978Z,20.66
2018-08-11T02:00:47.039Z,20.57
2018-08-11T02:01:57.104Z,20.58
2018-08-11T02:03:07.176Z,20.6
2018-08-11T02:04:16.988Z,20.54
2018-08-11T02:05:27.125Z,20.61
2018-08-11T02:06:36.933Z,20.66
2018-08-11T02:07:47.007Z,20.66
2018-08-11T02:08:57.088Z,20.61
2018-08-11T02:10:06.928Z,20.61
2018-08-11T02:11:16.919Z,20.63
2018-08-11T02:12:27.312Z,20.71
2018-08-11T02:13:36.865Z,20.66
2018-08-11T02:14:46.679Z,20.75
2018-08-11T02:15:56.761Z,20.81
2018-08-11T02:17:06.846Z,20.81
2018-08-11T02:18:16.932Z,20.83
2018-08-11T02:19:26.983Z,20.78
2018-08-11T02:20:37.048Z,20.78
2018-08-11T02:21:47.133Z,20.78
2018-08-11T02:22:57.207Z,20.78
2018-08-11T02:24:07.028Z,20.81
2018-08-11T02:25:17.109Z,20.83
2018-08-11T02:26:27.182Z,20.83
2018-08-11T02:27:36.989Z,20.83
2018-08-11T02:28:47.092Z,20.76
2018-08-11T02:29:57.173Z,20.78
2018-08-11T02:31:07.268Z,20.78
2018-08-11T02:32:17.329Z,20.83
2018-08-11T02:33:27.149Z,20.82
2018-08-11T02:34:37.283Z,20.72
2018-08-11T02:35:47.372Z,20.79
2018-08-11T02:36:57.193Z,20.81
2018-08-11T02:38:07.013Z,20.79
2018-08-11T02:39:17.099Z,20.75
2018-08-11T02:40:27.193Z,20.75
2018-08-11T02:41:36.999Z,20.82
2018-08-11T02:42:47.076Z,20.81
2018-08-11T02:43:57.148Z,20.83
2018-08-11T02:45:06.965Z,20.85
2018-08-11T02:46:17.053Z,20.82
2018-08-11T02:47:27.125Z,20.83
2018-08-11T02:48:37.197Z,20.85
2018-08-11T02:49:47.027Z,20.82
2018-08-11T02:50:56.859Z,20.82
2018-08-11T02:52:06.959Z,20.82
2018-08-11T02:53:16.761Z,20.81
2018-08-11T02:54:26.583Z,20.83
2018-08-11T02:55:36.666Z,20.9
2018-08-11T02:56:46.759Z,20.85
2018-08-11T02:57:56.640Z,20.93
2018-08-11T02:59:06.459Z,20.96
2018-08-11T03:00:16.539Z,20.88
2018-08-11T03:01:26.614Z,20.94
2018-08-11T03:02:37.078Z,20.93
2018-08-11T03:34:52.227Z,18.23
2018-08-11T03:36:02.289Z,18.23
2018-08-11T03:37:12.369Z,18.21
2018-08-11T03:38:22.426Z,18.21
2018-08-11T03:39:32.228Z,18.13
2018-08-11T03:40:42.304Z,18.2
2018-08-11T03:41:52.354Z,18.35
2018-08-11T03:43:02.405Z,18.49
2018-08-11T03:44:12.219Z,18.5
2018-08-11T03:45:22.280Z,18.6
2018-08-11T03:46:32.345Z,18.68
2018-08-11T03:47:42.417Z,18.81
2018-08-11T03:48:52.223Z,18.93
2018-08-11T03:50:02.037Z,19.02
2018-08-11T03:51:12.133Z,19.12
2018-08-11T03:52:22.255Z,19.12
2018-08-11T03:53:32.277Z,19.23
2018-08-11T03:54:42.344Z,19.3
2018-08-11T03:55:52.437Z,19.46
2018-08-11T03:57:02.493Z,19.46
2018-08-11T03:58:12.554Z,19.6
2018-08-11T03:59:22.364Z,19.64
2018-08-11T04:00:32.464Z,19.68
2018-08-11T04:01:42.033Z,19.8
2018-08-11T04:02:52.099Z,19.82
2018-08-11T04:04:02.171Z,19.85
2018-08-11T04:05:12.249Z,19.92
2018-08-11T04:06:22.299Z,19.98
2018-08-11T04:07:32.386Z,20.1
2018-08-11T04:08:42.193Z,20.04
2018-08-11T04:09:52.304Z,20.19
2018-08-11T04:11:02.369Z,20.22
2018-08-11T04:12:12.433Z,20.23
2018-08-11T04:13:22.512Z,20.32
2018-08-11T04:14:32.574Z,20.25
2018-08-11T04:15:42.629Z,20.29
2018-08-11T04:16:52.712Z,20.35
2018-08-11T04:18:02.787Z,20.32
2018-08-11T04:19:12.862Z,20.41
2018-08-11T04:20:22.936Z,20.4
2018-08-11T04:21:33.005Z,20.48
2018-08-11T04:22:43.141Z,20.48
2018-08-11T04:23:53.257Z,20.41
2018-08-11T04:25:03.339Z,20.46
2018-08-11T04:26:13.405Z,20.42
2018-08-11T04:27:23.010Z,20.49
2018-08-11T04:28:33.064Z,20.53
2018-08-11T04:29:43.119Z,20.54
2018-08-11T04:30:52.983Z,20.48
2018-08-11T04:32:03.071Z,20.46
2018-08-11T04:33:12.934Z,20.42
2018-08-11T04:34:22.481Z,20.46
2018-08-11T04:35:32.107Z,20.49
2018-08-11T04:36:41.965Z,20.46
2018-08-11T04:37:52.066Z,20.51
2018-08-11T04:39:01.883Z,20.37
2018-08-11T04:40:11.965Z,20.23
2018-08-11T04:41:21.521Z,20.27
2018-08-11T04:42:31.604Z,20.18
2018-08-11T04:43:41.686Z,20.27
2018-08-11T04:44:51.506Z,20.22
2018-08-11T04:46:01.309Z,20.12
2018-08-11T04:47:11.392Z,20.05
2018-08-11T04:48:21.197Z,20.1
2018-08-11T04:49:31.257Z,20.04
2018-08-11T04:50:41.329Z,20.04
2018-08-11T04:51:51.132Z,19.98
2018-08-11T04:53:00.954Z,20.11
2018-08-11T04:54:11.019Z,20.01
2018-08-11T04:55:20.850Z,19.98
2018-08-11T04:56:30.915Z,20.12
2018-08-11T04:57:41.001Z,20.02
2018-08-11T04:58:51.063Z,20.07
2018-08-11T05:00:01.139Z,20.18
2018-08-11T05:01:11.208Z,20.19
2018-08-11T05:02:21.289Z,20.19
2018-08-11T05:03:31.356Z,20.32
2018-08-11T05:04:41.432Z,20.26
2018-08-11T05:05:51.514Z,20.3
2018-08-11T05:07:01.334Z,20.38
2018-08-11T05:08:11.421Z,20.4
2018-08-11T05:09:21.490Z,20.35
2018-08-11T05:10:31.553Z,20.34
2018-08-11T05:11:41.390Z,20.4
2018-08-11T05:12:51.467Z,20.46
2018-08-11T05:14:01.277Z,20.49
2018-08-11T05:15:11.353Z,20.56
2018-08-11T05:16:21.422Z,20.63
2018-08-11T05:17:31.221Z,20.75
2018-08-11T05:18:41.295Z,20.63
2018-08-11T05:19:51.172Z,20.75
2018-08-11T05:21:01.476Z,20.78
2018-08-11T05:22:11.566Z,20.78
2018-08-11T05:23:21.636Z,20.83
2018-08-11T05:24:31.450Z,20.9
2018-08-11T05:25:40.995Z,20.94
2018-08-11T05:26:51.128Z,20.96
2018-08-11T05:28:00.934Z,20.91
2018-08-11T05:29:11.020Z,20.93
2018-08-11T05:30:20.638Z,20.93
2018-08-11T05:31:30.690Z,20.94
2018-08-11T05:32:40.788Z,21.01
2018-08-11T05:33:50.334Z,20.98
2018-08-11T05:35:00.413Z,21.06
2018-08-11T05:36:10.497Z,21.03
2018-08-11T05:37:20.559Z,21.08
2018-08-11T05:38:30.631Z,21.06
2018-08-11T05:39:40.701Z,21.15
2018-08-11T05:40:50.249Z,21.18
2018-08-11T05:42:00.345Z,21.13
2018-08-11T05:43:10.425Z,21.19
2018-08-11T05:44:20.491Z,21.21
2018-08-11T05:45:30.574Z,21.23
2018-08-11T05:46:40.658Z,21.27
2018-08-11T05:47:50.735Z,21.41
2018-08-11T05:49:00.828Z,21.41
2018-08-11T05:50:10.627Z,21.41
2018-08-11T05:51:20.718Z,21.49
2018-08-11T05:52:30.791Z,21.51
2018-08-11T05:53:40.872Z,21.66
2018-08-11T05:54:50.678Z,21.52
2018-08-11T05:56:00.746Z,21.64
2018-08-11T05:57:10.823Z,21.73
2018-08-11T05:58:20.902Z,21.76
2018-08-11T05:59:30.962Z,21.7
2018-08-11T06:00:41.027Z,21.85
2018-08-11T06:01:51.090Z,21.89
2018-08-11T06:03:01.174Z,21.96
2018-08-11T06:04:11.128Z,22.09
2018-08-11T06:05:20.941Z,22.29
2018-08-11T06:06:31.060Z,22.31
2018-08-11T06:07:41.120Z,22.49
2018-08-11T06:08:50.680Z,22.64
2018-08-11T06:10:00.740Z,22.73
2018-08-11T06:11:10.815Z,22.86
2018-08-11T06:12:20.640Z,22.89
2018-08-11T06:13:30.199Z,23.03
2018-08-11T06:14:40.263Z,23.15
2018-08-11T06:15:50.056Z,23.16
2018-08-11T06:17:00.135Z,23.21
2018-08-11T06:18:10.232Z,23.25
2018-08-11T06:19:20.048Z,23.37
2018-08-11T06:20:30.135Z,23.35
2018-08-11T06:21:40.195Z,23.38
2018-08-11T06:22:50.295Z,23.47
2018-08-11T06:24:00.096Z,23.6
2018-08-11T06:25:10.181Z,23.7
2018-08-11T06:26:20.286Z,23.85
2018-08-11T06:27:30.093Z,24.02
2018-08-11T06:28:40.178Z,24.08
2018-08-11T06:29:49.998Z,24.14
2018-08-11T06:30:59.290Z,24.29
2018-08-11T06:32:09.495Z,24.33
2018-08-11T06:33:19.862Z,24.4
2018-08-11T06:34:29.951Z,24.58
2018-08-11T06:35:40.112Z,24.71
2018-08-11T06:36:50.229Z,24.87
2018-08-11T06:38:00.313Z,25.05
2018-08-11T06:39:10.111Z,25.3
2018-08-11T06:40:19.927Z,25.57
2018-08-11T06:41:30.074Z,25.81
2018-08-11T06:42:40.159Z,26.15
2018-08-11T06:43:49.967Z,26.23
2018-08-11T06:44:59.788Z,26.45
2018-08-11T06:46:09.872Z,26.47
2018-08-11T06:47:19.740Z,26.47
2018-08-11T06:48:29.295Z,26.44
2018-08-11T06:49:38.834Z,26.49
2018-08-11T06:50:48.913Z,26.42
2018-08-11T06:51:59.011Z,26.26
2018-08-11T06:53:09.107Z,26.16
2018-08-11T06:54:19.176Z,25.88
2018-08-11T06:55:29.331Z,25.81
2018-08-11T06:56:39.512Z,25.75
2018-08-11T06:57:49.602Z,25.85
2018-08-11T06:58:59.690Z,26.01
2018-08-11T07:00:09.551Z,26.16
2018-08-11T07:01:19.651Z,26.34
2018-08-11T07:02:29.481Z,26.44
2018-08-11T07:03:39.548Z,26.49
2018-08-11T07:04:49.630Z,26.56
2018-08-11T07:05:59.723Z,26.68
2018-08-11T07:07:09.817Z,26.71
2018-08-11T07:08:19.903Z,26.91
2018-08-11T07:09:29.705Z,26.93
2018-08-11T07:10:39.772Z,26.93
2018-08-11T07:11:49.847Z,26.97
2018-08-11T07:12:59.665Z,27.16
2018-08-11T07:14:09.748Z,27.18
2018-08-11T07:15:20.111Z,27.38
2018-08-11T07:16:30.215Z,27.52
2018-08-11T07:17:40.061Z,27.66
2018-08-11T07:18:50.156Z,27.89
2018-08-11T07:19:59.985Z,28.14
2018-08-11T07:21:10.105Z,28.28
2018-08-11T07:22:20.324Z,28.63
2018-08-11T07:23:30.434Z,28.91
2018-08-11T07:24:40.569Z,29.15
2018-08-11T07:25:50.324Z,29.3
2018-08-11T07:27:00.133Z,29.32
2018-08-11T07:28:09.994Z,29.42
2018-08-11T07:29:20.068Z,29.48
2018-08-11T07:30:29.972Z,29.51
2018-08-11T07:31:40.057Z,29.69
2018-08-11T07:32:50.147Z,29.77
2018-08-11T07:33:59.969Z,29.95
2018-08-11T07:35:10.086Z,30.03
2018-08-11T07:36:20.167Z,30.16
2018-08-11T07:37:30.492Z,30.13
2018-08-11T07:38:41.398Z,29.98
2018-08-11T07:39:51.332Z,30.09
2018-08-11T07:41:01.537Z,30.28
2018-08-11T07:42:11.383Z,30.51
2018-08-11T07:43:21.646Z,30.47
2018-08-11T07:44:31.972Z,30.49
2018-08-11T07:45:41.858Z,30.63
2018-08-11T07:46:51.941Z,30.62
2018-08-11T07:48:01.749Z,30.49
2018-08-11T07:49:11.574Z,30.62
2018-08-11T07:50:21.838Z,30.63
2018-08-11T07:51:32.159Z,30.77
2018-08-11T07:52:42.236Z,31.07
2018-08-11T07:53:52.302Z,31.4
2018-08-11T07:55:02.151Z,31.49
2018-08-11T07:56:12.215Z,31.53
2018-08-11T07:57:22.286Z,31.45
2018-08-11T07:58:32.368Z,31.44
2018-08-11T07:59:42.439Z,31.44
2018-08-11T08:00:52.514Z,31.45
2018-08-11T08:02:02.592Z,31.58
2018-08-11T08:03:12.487Z,31.63
2018-08-11T08:04:22.296Z,31.47
2018-08-11T08:05:32.393Z,31.31
2018-08-11T08:06:42.212Z,31.12
2018-08-11T08:07:52.301Z,30.97
2018-08-11T08:09:02.207Z,30.81
2018-08-11T08:10:12.042Z,30.6
2018-08-11T08:11:22.108Z,30.26
2018-08-11T08:12:32.173Z,30.06
2018-08-11T08:13:42.412Z,30.03
2018-08-11T08:14:52.837Z,29.79
2018-08-11T08:16:02.945Z,29.66
2018-08-11T08:17:12.772Z,29.69
2018-08-11T08:18:22.850Z,29.47
2018-08-11T08:19:32.930Z,29.18
2018-08-11T08:20:43.010Z,29.2
2018-08-11T08:21:53.095Z,28.92
2018-08-11T08:23:03.183Z,28.91
2018-08-11T08:24:13.021Z,28.92
2018-08-11T08:25:23.100Z,29.01
2018-08-11T08:26:34.202Z,29.02
2018-08-11T08:27:44.715Z,29.06
2018-08-11T08:28:54.803Z,29.15
2018-08-11T08:30:04.899Z,29.13
2018-08-11T08:31:15.011Z,29.29
2018-08-11T08:32:25.096Z,29.5
2018-08-11T08:33:35.196Z,29.48
2018-08-11T08:34:45.292Z,29.4
2018-08-11T08:35:55.108Z,29.42
2018-08-11T08:37:05.199Z,29.45
2018-08-11T08:38:15.044Z,29.47
2018-08-11T08:39:25.123Z,29.52
2018-08-11T08:40:35.206Z,29.4
2018-08-11T08:41:45.395Z,29.42
2018-08-11T08:42:55.613Z,29.39
2018-08-11T08:44:05.708Z,29.54
2018-08-11T08:45:15.541Z,29.5
2018-08-11T08:46:25.656Z,29.54
2018-08-11T08:47:36.014Z,29.43
2018-08-11T08:48:46.161Z,29.55
2018-08-11T08:49:56.250Z,29.3
2018-08-11T08:51:05.830Z,29.2
2018-08-11T08:52:15.967Z,29.08
2018-08-11T08:53:26.409Z,28.98
2018-08-11T08:54:36.506Z,28.78
2018-08-11T08:55:46.561Z,28.73
2018-08-11T08:56:56.700Z,28.63
2018-08-11T08:58:06.797Z,28.54
2018-08-11T08:59:16.783Z,28.61
2018-08-11T09:00:26.364Z,28.46
2018-08-11T09:01:36.456Z,28.38
2018-08-11T09:02:46.530Z,28.28
2018-08-11T09:03:56.622Z,28.18
2018-08-11T09:05:06.727Z,28.23
2018-08-11T09:06:16.839Z,28.12
2018-08-11T09:07:26.937Z,28.2
2018-08-11T09:08:37.022Z,28.12
2018-08-11T09:09:46.884Z,27.99
2018-08-11T09:10:56.992Z,28.08
2018-08-11T09:12:07.464Z,28.2
2018-08-11T09:13:17.605Z,28.2
2018-08-11T09:14:27.445Z,28.31
2018-08-11T09:15:37.279Z,28.28
2018-08-11T09:16:47.355Z,28.18
2018-08-11T09:17:57.443Z,28.17
2018-08-11T09:19:07.264Z,28.16
2018-08-11T09:20:17.344Z,28.21
2018-08-11T09:21:27.222Z,28.16
2018-08-11T09:22:37.296Z,28.23
2018-08-11T09:23:47.384Z,28.31
2018-08-11T09:24:57.479Z,28.45
2018-08-11T09:26:07.559Z,28.57
2018-08-11T09:27:17.637Z,28.58
2018-08-11T09:28:27.723Z,28.6
2018-08-11T09:29:37.290Z,28.64
2018-08-11T09:30:47.357Z,28.68
2018-08-11T09:31:57.176Z,28.85
2018-08-11T09:33:07.264Z,28.98
2018-08-11T09:34:17.356Z,29.26
2018-08-11T09:35:27.439Z,29.43
2018-08-11T09:36:36.994Z,29.63
2018-08-11T09:37:46.845Z,29.79
2018-08-11T09:38:56.924Z,29.76
2018-08-11T09:40:06.766Z,29.69
2018-08-11T09:41:16.875Z,29.69
2018-08-11T09:42:26.707Z,29.65
2018-08-11T09:43:36.798Z,29.67
2018-08-11T09:44:46.888Z,29.72
2018-08-11T09:45:57.041Z,29.72
2018-08-11T09:47:06.975Z,29.61
2018-08-11T09:48:17.058Z,29.63
2018-08-11T09:49:27.173Z,29.58
2018-08-11T09:50:37.071Z,29.6
2018-08-11T09:51:47.178Z,29.58
2018-08-11T09:52:57.263Z,29.66
2018-08-11T09:54:07.069Z,29.65
2018-08-11T09:55:16.907Z,29.77
2018-08-11T09:56:27.004Z,29.89
2018-08-11T09:57:37.085Z,30.06
2018-08-11T09:58:47.496Z,30.07
2018-08-11T09:59:58.051Z,30.28
2018-08-11T10:01:08.138Z,30.47
2018-08-11T10:02:18.231Z,30.77
2018-08-11T10:03:28.312Z,31.01
2018-08-11T10:04:38.429Z,31.34
2018-08-11T10:05:48.240Z,31.72
2018-08-11T10:06:58.314Z,32.16
2018-08-11T10:08:08.434Z,32.52
2018-08-11T10:09:18.521Z,32.68
2018-08-11T10:10:28.718Z,32.8
2018-08-11T10:11:38.979Z,32.9
2018-08-11T10:12:49.050Z,32.96
2018-08-11T10:13:59.134Z,33.08
2018-08-11T10:15:09.215Z,33.23
2018-08-11T10:16:19.045Z,33.23
2018-08-11T10:17:28.890Z,33.44
2018-08-11T10:18:39.408Z,33.75
2018-08-11T10:19:49.631Z,34.03
2018-08-11T10:20:59.486Z,34.29
2018-08-11T10:22:09.588Z,34.33
2018-08-11T10:23:19.691Z,34.27
2018-08-11T10:24:29.757Z,33.92
2018-08-11T10:25:39.840Z,33.73
2018-08-11T10:26:49.923Z,33.59
2018-08-11T10:28:00.024Z,33.52
2018-08-11T10:29:10.108Z,33.41
2018-08-11T10:30:20.193Z,33.28
2018-08-11T10:31:30.079Z,33.41
2018-08-11T10:32:39.917Z,33.41
2018-08-11T10:33:50.009Z,33.34
2018-08-11T10:35:00.094Z,33.63
2018-08-11T10:36:10.188Z,33.73
2018-08-11T10:37:20.057Z,33.39
2018-08-11T10:38:30.143Z,33.17
2018-08-11T10:39:40.249Z,33.05
2018-08-11T10:40:50.452Z,33.13
2018-08-11T10:42:00.556Z,33.05
2018-08-11T10:43:10.700Z,33.2
2018-08-11T10:44:20.813Z,33.23
2018-08-11T10:45:30.660Z,33.16
2018-08-11T10:46:40.786Z,33.24
2018-08-11T10:47:50.863Z,33.18
2018-08-11T10:49:00.946Z,33.5
2018-08-11T10:50:10.787Z,33.34
2018-08-11T10:51:20.886Z,33.61
2018-08-11T10:52:30.996Z,33.66
2018-08-11T10:53:41.096Z,33.61
2018-08-11T10:54:50.973Z,33.41
2018-08-11T10:56:01.244Z,32.89
2018-08-11T10:57:11.275Z,32.72
2018-08-11T10:58:21.365Z,32.59
2018-08-11T10:59:31.463Z,32.38
2018-08-11T11:00:41.553Z,31.77
2018-08-11T11:01:51.629Z,31.45
2018-08-11T11:03:01.721Z,31.56
2018-08-11T11:04:11.825Z,31.6
2018-08-11T11:05:21.903Z,31.81
2018-08-11T11:06:32.054Z,31.98
2018-08-11T11:07:41.625Z,32.31
2018-08-11T11:08:51.699Z,32.64
2018-08-11T11:10:01.535Z,32.89
2018-08-11T11:11:11.634Z,33.26
2018-08-11T11:12:21.722Z,32.98
2018-08-11T11:13:31.825Z,33.24
2018-08-11T11:14:41.922Z,33.58
2018-08-11T11:15:52.012Z,33.84
2018-08-11T11:17:01.567Z,33.92
2018-08-11T11:18:11.129Z,33.63
2018-08-11T11:19:20.683Z,33.58
2018-08-11T11:20:30.511Z,33.41
2018-08-11T11:21:40.340Z,33.02
2018-08-11T11:22:50.434Z,32.79
2018-08-11T11:24:00.519Z,32.67
2018-08-11T11:25:10.597Z,32.69
2018-08-11T11:26:20.682Z,32.49
2018-08-11T11:27:30.756Z,32.34
2018-08-11T11:28:40.820Z,32.5
2018-08-11T11:29:50.930Z,32.57
2018-08-11T11:31:01.101Z,32.46
2018-08-11T11:32:10.907Z,32.67
2018-08-11T11:33:20.983Z,32.87
2018-08-11T11:34:31.063Z,32.76
2018-08-11T11:35:41.131Z,32.71
2018-08-11T11:36:51.216Z,33.05
2018-08-11T11:38:01.040Z,33.11
2018-08-11T11:39:11.134Z,32.86
2018-08-11T11:40:21.268Z,32.67
2018-08-11T11:41:31.348Z,32.61
2018-08-11T11:42:41.485Z,32.37
2018-08-11T11:43:51.588Z,32.19
2018-08-11T11:45:01.666Z,31.94
2018-08-11T11:46:11.761Z,31.75
2018-08-11T11:47:21.853Z,31.87
2018-08-11T11:48:31.942Z,31.88
2018-08-11T11:49:41.769Z,31.87
2018-08-11T11:50:51.870Z,31.82
2018-08-11T11:52:01.943Z,31.88
2018-08-11T11:53:11.780Z,31.81
2018-08-11T11:54:21.608Z,31.59
2018-08-11T11:55:31.685Z,31.43
2018-08-11T11:56:41.776Z,31.37
2018-08-11T11:57:51.865Z,31.21
2018-08-11T11:59:01.961Z,31.15
2018-08-11T12:00:12.061Z,30.89
2018-08-11T12:01:22.154Z,30.69
2018-08-11T12:02:32.237Z,30.71
2018-08-11T12:03:42.312Z,30.52
2018-08-11T12:04:52.419Z,30.7
2018-08-11T12:06:02.648Z,31.01
2018-08-11T12:07:12.748Z,31.4
2018-08-11T12:08:22.568Z,31.68
2018-08-11T12:09:32.655Z,31.94
2018-08-11T12:10:42.734Z,32.08
2018-08-11T12:11:52.830Z,32.35
2018-08-11T12:13:02.901Z,32.62
2018-08-11T12:14:12.998Z,32.74
2018-08-11T12:15:23.076Z,32.83
2018-08-11T12:16:33.166Z,32.9
2018-08-11T12:17:43.237Z,32.93
2018-08-11T12:18:53.042Z,32.79
2018-08-11T12:20:03.419Z,32.69
2018-08-11T12:21:13.578Z,32.61
2018-08-11T12:22:23.212Z,32.5
2018-08-11T12:23:32.777Z,32.5
2018-08-11T12:24:42.608Z,32.59
2018-08-11T12:25:52.702Z,32.65
2018-08-11T12:27:02.542Z,32.56
2018-08-11T12:28:12.097Z,32.5
2018-08-11T12:29:22.202Z,32.42
2018-08-11T12:30:32.308Z,32.56
2018-08-11T12:31:42.420Z,32.71
2018-08-11T12:32:52.518Z,32.83
2018-08-11T12:34:02.338Z,33.05
2018-08-11T12:35:12.438Z,33.18
2018-08-11T12:36:22.521Z,33.01
2018-08-11T12:37:32.431Z,32.69
2018-08-11T12:38:42.253Z,32.71
2018-08-11T12:39:52.336Z,32.75
2018-08-11T12:41:02.426Z,33.13
2018-08-11T12:42:12.272Z,33.21
2018-08-11T12:43:22.354Z,33.39
2018-08-11T12:44:32.440Z,33.4
2018-08-11T12:45:42.675Z,33.66
2018-08-11T12:46:52.781Z,33.47
2018-08-11T12:48:02.606Z,33.01
2018-08-11T12:49:12.759Z,33.29
2018-08-11T12:50:22.607Z,33.2
2018-08-11T12:51:32.439Z,33.09
2018-08-11T12:52:42.284Z,32.93
2018-08-11T12:53:52.378Z,33.31
2018-08-11T12:55:02.459Z,33.53
2018-08-11T12:56:12.537Z,33.37
2018-08-11T12:57:22.617Z,33.39
2018-08-11T12:58:32.446Z,33.68
2018-08-11T12:59:42.535Z,33.61
2018-08-11T13:00:52.696Z,33.23
2018-08-11T13:02:02.775Z,33.11
2018-08-11T13:03:12.915Z,33.23
2018-08-11T13:04:22.999Z,33.48
2018-08-11T13:05:33.091Z,33.62
2018-08-11T13:06:42.902Z,33.48
2018-08-11T13:07:53.124Z,33.31
2018-08-11T13:09:02.961Z,32.96
2018-08-11T13:10:13.051Z,32.68
2018-08-11T13:11:23.118Z,32.38
2018-08-11T13:12:33.197Z,32.23
2018-08-11T13:13:43.283Z,32.05
2018-08-11T13:14:53.116Z,32.01
2018-08-11T13:16:03.200Z,32.01
2018-08-11T13:17:13.306Z,32.08
2018-08-11T13:18:23.387Z,32.05
2018-08-11T13:19:33.483Z,31.94
2018-08-11T13:20:43.817Z,31.86
2018-08-11T13:21:53.953Z,31.86
2018-08-11T13:23:04.043Z,31.77
2018-08-11T13:24:14.128Z,31.62
2018-08-11T13:25:24.223Z,31.58
2018-08-11T13:26:34.313Z,31.53
2018-08-11T13:27:44.409Z,31.6
2018-08-11T13:28:54.515Z,31.81
2018-08-11T13:30:04.336Z,31.68
2018-08-11T13:31:14.418Z,31.63
2018-08-11T13:32:24.248Z,31.6
2018-08-11T13:33:34.333Z,31.59
2018-08-11T13:34:44.146Z,31.6
2018-08-11T13:35:54.236Z,31.87
2018-08-11T13:37:04.312Z,32.15
2018-08-11T13:38:14.398Z,32.46
2018-08-11T13:39:24.488Z,32.65
2018-08-11T13:40:34.571Z,32.84
2018-08-11T13:41:44.458Z,32.79
2018-08-11T13:42:54.577Z,32.68
2018-08-11T13:44:04.658Z,32.86
2018-08-11T13:45:14.496Z,33.13
2018-08-11T13:46:24.604Z,33.24
2018-08-11T13:47:34.431Z,33.46
2018-08-11T13:48:44.521Z,33.61
2018-08-11T13:49:54.986Z,33.69
2018-08-11T13:51:04.805Z,33.61
2018-08-11T13:52:14.627Z,33.53
2018-08-11T13:53:24.749Z,33.46
2018-08-11T13:54:34.877Z,33.43
2018-08-11T13:55:44.972Z,33.24
2018-08-11T13:56:55.055Z,33.2
2018-08-11T13:58:05.148Z,33.05
2018-08-11T13:59:14.995Z,32.96
2018-08-11T14:00:25.121Z,32.84
2018-08-11T14:01:35.519Z,32.81
2018-08-11T14:02:45.608Z,32.65
2018-08-11T14:03:55.422Z,32.64
2018-08-11T14:05:05.532Z,32.49
2018-08-11T14:06:15.633Z,32.54
2018-08-11T14:07:25.811Z,32.53
2018-08-11T14:08:35.715Z,32.39
2018-08-11T14:09:45.804Z,32.37
2018-08-11T14:10:55.892Z,32.34
2018-08-11T14:12:06.007Z,32.37
2018-08-11T14:13:16.088Z,32.35
2018-08-11T14:14:25.931Z,32.38
2018-08-11T14:15:35.998Z,32.45
2018-08-11T14:16:45.877Z,32.34
2018-08-11T14:17:55.943Z,32.49
2018-08-11T14:19:06.032Z,32.52
2018-08-11T14:20:16.174Z,32.57
2018-08-11T14:21:26.438Z,32.59
2018-08-11T14:22:35.985Z,32.57
2018-08-11T14:23:45.802Z,32.5
2018-08-11T14:24:55.907Z,32.47
2018-08-11T14:26:06.022Z,32.57
2018-08-11T14:27:16.114Z,32.5
2018-08-11T14:28:26.259Z,32.68
2018-08-11T14:29:36.348Z,32.62
2018-08-11T14:30:46.460Z,32.64
2018-08-11T14:31:56.583Z,32.53
2018-08-11T14:33:06.682Z,32.49
2018-08-11T14:34:16.760Z,32.47
2018-08-11T14:35:26.874Z,32.38
2018-08-11T14:36:36.699Z,32.52
2018-08-11T14:37:46.814Z,32.47
2018-08-11T14:38:56.914Z,32.54
2018-08-11T14:40:07.022Z,32.47
2018-08-11T14:41:17.105Z,32.64
2018-08-11T14:42:26.965Z,32.62
2018-08-11T14:43:37.056Z,32.65
2018-08-11T14:44:47.152Z,32.75
2018-08-11T14:45:57.262Z,32.75
2018-08-11T14:47:07.355Z,32.79
2018-08-11T14:48:17.186Z,32.71
2018-08-11T14:49:27.017Z,32.8
2018-08-11T14:50:37.302Z,32.81
2018-08-11T14:51:47.662Z,32.84
2018-08-11T14:52:57.739Z,32.86
2018-08-11T14:54:07.823Z,32.87
2018-08-11T14:55:17.640Z,32.89
2018-08-11T14:56:27.929Z,32.96
2018-08-11T14:57:37.992Z,32.9
2018-08-11T14:58:47.808Z,32.94
2018-08-11T14:59:57.914Z,32.84
2018-08-11T15:01:08.008Z,32.86
2018-08-11T15:02:18.122Z,32.8
2018-08-11T15:03:28.259Z,32.83
2018-08-11T15:04:38.350Z,32.81
2018-08-11T15:05:48.439Z,32.81
2018-08-11T15:06:58.501Z,32.87
2018-08-11T15:08:08.606Z,32.76
2018-08-11T15:09:18.726Z,32.81
2018-08-11T15:10:28.566Z,32.86
2018-08-11T15:11:38.643Z,32.71
2018-08-11T15:12:48.744Z,32.69
2018-08-11T15:13:58.587Z,32.74
2018-08-11T15:15:08.733Z,32.65
2018-08-11T15:16:19.094Z,32.69
2018-08-11T15:17:29.151Z,32.65
2018-08-11T15:18:39.227Z,32.68
2018-08-11T15:19:49.318Z,32.65
2018-08-11T15:20:59.157Z,32.67
2018-08-11T15:22:08.991Z,32.64
2018-08-11T15:23:19.123Z,32.65
2018-08-11T15:24:29.237Z,32.72
2018-08-11T15:25:39.063Z,32.71
2018-08-11T15:26:49.149Z,32.74
2018-08-11T15:27:59.279Z,32.67
2018-08-11T15:29:09.452Z,32.72
2018-08-11T15:30:19.263Z,32.71
2018-08-11T15:31:29.350Z,32.76
2018-08-11T15:32:39.174Z,32.72
2018-08-11T15:33:49.278Z,32.69
2018-08-11T15:34:59.388Z,32.65